sensor_id;sensor_type;location;lat;lon;timestamp;P1;durP1;ratioP1;P2;durP2;ratioP2
38208;SDS011;24016;52.102;11.584;2024-01-06T00:01:00;131.00;;;25.00;;
38208;SDS011;24016;52.102;11.584;2024-01-06T00:03:25;105.53;;;24.55;;
38208;SDS011;24016;52.102;11.584;2024-01-06T00:05:51;93.63;;;24.30;;
38208;SDS011;24016;52.102;11.584;2024-01-06T00:08:17;78.80;;;22.70;;
38208;SDS011;24016;52.102;11.584;2024-01-06T00:10:42;70.35;;;22.75;;
38208;SDS011;24016;52.102;11.584;2024-01-06T00:13:07;88.85;;;23.42;;
38208;SDS011;24016;52.102;11.584;2024-01-06T00:15:34;71.47;;;22.40;;
38208;SDS011;24016;52.102;11.584;2024-01-06T00:18:00;71.03;;;22.85;;
38208;SDS011;24016;52.102;11.584;2024-01-06T00:20:25;78.97;;;22.80;;
38208;SDS011;24016;52.102;11.584;2024-01-06T00:22:51;70.53;;;20.27;;
38208;SDS011;24016;52.102;11.584;2024-01-06T00:25:16;78.78;;;23.05;;
38208;SDS011;24016;52.102;11.584;2024-01-06T00:27:42;84.63;;;22.88;;
38208;SDS011;24016;52.102;11.584;2024-01-06T00:30:07;66.88;;;20.45;;
38208;SDS011;24016;52.102;11.584;2024-01-06T00:32:33;75.38;;;21.92;;
38208;SDS011;24016;52.102;11.584;2024-01-06T00:34:58;81.65;;;21.88;;
38208;SDS011;24016;52.102;11.584;2024-01-06T00:37:24;66.72;;;21.40;;
38208;SDS011;24016;52.102;11.584;2024-01-06T00:39:50;98.40;;;23.60;;
38208;SDS011;24016;52.102;11.584;2024-01-06T00:42:15;111.97;;;22.95;;
38208;SDS011;24016;52.102;11.584;2024-01-06T00:44:41;99.35;;;24.27;;
38208;SDS011;24016;52.102;11.584;2024-01-06T00:47:06;97.85;;;23.33;;
38208;SDS011;24016;52.102;11.584;2024-01-06T00:49:32;89.22;;;22.90;;
38208;SDS011;24016;52.102;11.584;2024-01-06T00:51:57;96.03;;;22.63;;
38208;SDS011;24016;52.102;11.584;2024-01-06T00:54:23;95.07;;;22.65;;
38208;SDS011;24016;52.102;11.584;2024-01-06T00:56:48;93.80;;;22.42;;
38208;SDS011;24016;52.102;11.584;2024-01-06T00:59:14;70.35;;;22.63;;
38208;SDS011;24016;52.102;11.584;2024-01-06T01:01:39;94.47;;;22.52;;
38208;SDS011;24016;52.102;11.584;2024-01-06T01:04:05;89.95;;;22.95;;
38208;SDS011;24016;52.102;11.584;2024-01-06T01:06:31;97.80;;;23.08;;
38208;SDS011;24016;52.102;11.584;2024-01-06T01:08:56;87.85;;;21.90;;
38208;SDS011;24016;52.102;11.584;2024-01-06T01:11:22;99.82;;;22.95;;
38208;SDS011;24016;52.102;11.584;2024-01-06T01:13:47;100.78;;;23.05;;
38208;SDS011;24016;52.102;11.584;2024-01-06T01:16:12;105.22;;;22.17;;
38208;SDS011;24016;52.102;11.584;2024-01-06T01:18:38;85.00;;;21.45;;
38208;SDS011;24016;52.102;11.584;2024-01-06T01:21:04;112.00;;;24.05;;
38208;SDS011;24016;52.102;11.584;2024-01-06T01:23:29;110.50;;;22.65;;
38208;SDS011;24016;52.102;11.584;2024-01-06T01:25:55;116.35;;;23.85;;
38208;SDS011;24016;52.102;11.584;2024-01-06T01:28:20;69.47;;;21.63;;
38208;SDS011;24016;52.102;11.584;2024-01-06T01:30:46;71.85;;;21.83;;
38208;SDS011;24016;52.102;11.584;2024-01-06T01:33:11;87.50;;;22.10;;
38208;SDS011;24016;52.102;11.584;2024-01-06T01:35:37;81.22;;;21.48;;
38208;SDS011;24016;52.102;11.584;2024-01-06T01:38:02;100.13;;;22.65;;
38208;SDS011;24016;52.102;11.584;2024-01-06T01:40:28;130.35;;;23.55;;
38208;SDS011;24016;52.102;11.584;2024-01-06T01:42:53;97.22;;;22.52;;
38208;SDS011;24016;52.102;11.584;2024-01-06T01:45:19;88.97;;;23.52;;
38208;SDS011;24016;52.102;11.584;2024-01-06T01:47:45;90.47;;;22.83;;
38208;SDS011;24016;52.102;11.584;2024-01-06T01:50:11;120.25;;;23.60;;
38208;SDS011;24016;52.102;11.584;2024-01-06T01:52:37;164.73;;;24.90;;
38208;SDS011;24016;52.102;11.584;2024-01-06T01:55:05;133.05;;;25.90;;
38208;SDS011;24016;52.102;11.584;2024-01-06T01:57:31;101.20;;;24.15;;
38208;SDS011;24016;52.102;11.584;2024-01-06T01:59:57;95.03;;;24.20;;
38208;SDS011;24016;52.102;11.584;2024-01-06T02:02:22;70.30;;;22.27;;
38208;SDS011;24016;52.102;11.584;2024-01-06T02:04:48;92.10;;;24.60;;
38208;SDS011;24016;52.102;11.584;2024-01-06T02:07:14;97.00;;;25.08;;
38208;SDS011;24016;52.102;11.584;2024-01-06T02:09:39;104.63;;;25.05;;
38208;SDS011;24016;52.102;11.584;2024-01-06T02:12:05;81.22;;;24.25;;
38208;SDS011;24016;52.102;11.584;2024-01-06T02:14:31;75.18;;;23.55;;
38208;SDS011;24016;52.102;11.584;2024-01-06T02:16:57;82.32;;;24.65;;
38208;SDS011;24016;52.102;11.584;2024-01-06T02:19:23;79.05;;;24.40;;
38208;SDS011;24016;52.102;11.584;2024-01-06T02:21:52;100.43;;;25.38;;
38208;SDS011;24016;52.102;11.584;2024-01-06T02:24:18;94.22;;;24.67;;
38208;SDS011;24016;52.102;11.584;2024-01-06T02:26:44;80.03;;;23.05;;
38208;SDS011;24016;52.102;11.584;2024-01-06T02:29:10;93.53;;;24.40;;
38208;SDS011;24016;52.102;11.584;2024-01-06T02:34:11;83.47;;;24.65;;
38208;SDS011;24016;52.102;11.584;2024-01-06T02:36:36;92.68;;;24.30;;
38208;SDS011;24016;52.102;11.584;2024-01-06T02:39:02;81.30;;;22.83;;
38208;SDS011;24016;52.102;11.584;2024-01-06T02:41:27;86.50;;;24.60;;
38208;SDS011;24016;52.102;11.584;2024-01-06T02:43:54;88.15;;;25.13;;
38208;SDS011;24016;52.102;11.584;2024-01-06T02:46:20;72.22;;;24.55;;
38208;SDS011;24016;52.102;11.584;2024-01-06T02:48:45;88.20;;;25.20;;
38208;SDS011;24016;52.102;11.584;2024-01-06T02:51:11;87.80;;;23.60;;
38208;SDS011;24016;52.102;11.584;2024-01-06T02:53:37;93.43;;;24.33;;
38208;SDS011;24016;52.102;11.584;2024-01-06T02:56:03;93.03;;;25.33;;
38208;SDS011;24016;52.102;11.584;2024-01-06T02:58:29;101.05;;;25.33;;
38208;SDS011;24016;52.102;11.584;2024-01-06T03:00:54;105.38;;;25.23;;
38208;SDS011;24016;52.102;11.584;2024-01-06T03:03:20;95.82;;;24.95;;
38208;SDS011;24016;52.102;11.584;2024-01-06T03:05:45;97.72;;;25.52;;
38208;SDS011;24016;52.102;11.584;2024-01-06T03:08:13;94.65;;;24.48;;
38208;SDS011;24016;52.102;11.584;2024-01-06T03:10:39;107.10;;;26.52;;
38208;SDS011;24016;52.102;11.584;2024-01-06T03:13:05;105.45;;;26.63;;
38208;SDS011;24016;52.102;11.584;2024-01-06T03:15:30;91.18;;;24.83;;
38208;SDS011;24016;52.102;11.584;2024-01-06T03:17:56;97.70;;;25.55;;
38208;SDS011;24016;52.102;11.584;2024-01-06T03:20:21;101.25;;;25.10;;
38208;SDS011;24016;52.102;11.584;2024-01-06T03:22:47;95.43;;;25.23;;
38208;SDS011;24016;52.102;11.584;2024-01-06T03:25:12;106.13;;;25.42;;
38208;SDS011;24016;52.102;11.584;2024-01-06T03:27:38;92.05;;;25.15;;
38208;SDS011;24016;52.102;11.584;2024-01-06T03:30:04;87.43;;;22.85;;
38208;SDS011;24016;52.102;11.584;2024-01-06T03:32:30;107.95;;;25.02;;
38208;SDS011;24016;52.102;11.584;2024-01-06T03:34:56;103.25;;;25.30;;
38208;SDS011;24016;52.102;11.584;2024-01-06T03:37:21;89.13;;;23.33;;
38208;SDS011;24016;52.102;11.584;2024-01-06T03:39:47;89.78;;;23.42;;
38208;SDS011;24016;52.102;11.584;2024-01-06T03:42:12;89.82;;;23.30;;
38208;SDS011;24016;52.102;11.584;2024-01-06T03:44:38;83.43;;;22.95;;
38208;SDS011;24016;52.102;11.584;2024-01-06T03:47:03;74.70;;;22.58;;
38208;SDS011;24016;52.102;11.584;2024-01-06T03:49:29;81.68;;;22.77;;
38208;SDS011;24016;52.102;11.584;2024-01-06T03:51:55;95.30;;;23.33;;
38208;SDS011;24016;52.102;11.584;2024-01-06T03:54:20;95.20;;;23.33;;
38208;SDS011;24016;52.102;11.584;2024-01-06T03:56:46;88.15;;;21.92;;
38208;SDS011;24016;52.102;11.584;2024-01-06T03:59:11;96.15;;;23.48;;
38208;SDS011;24016;52.102;11.584;2024-01-06T04:01:37;91.70;;;22.73;;
38208;SDS011;24016;52.102;11.584;2024-01-06T04:04:02;76.80;;;21.63;;
38208;SDS011;24016;52.102;11.584;2024-01-06T04:06:28;88.32;;;24.38;;
38208;SDS011;24016;52.102;11.584;2024-01-06T04:08:54;112.10;;;24.73;;
38208;SDS011;24016;52.102;11.584;2024-01-06T04:11:23;88.65;;;23.52;;
38208;SDS011;24016;52.102;11.584;2024-01-06T04:13:48;84.63;;;22.80;;
38208;SDS011;24016;52.102;11.584;2024-01-06T04:16:14;91.03;;;22.70;;
38208;SDS011;24016;52.102;11.584;2024-01-06T04:18:39;77.07;;;21.65;;
38208;SDS011;24016;52.102;11.584;2024-01-06T04:21:05;82.05;;;22.00;;
38208;SDS011;24016;52.102;11.584;2024-01-06T04:23:31;82.90;;;22.35;;
38208;SDS011;24016;52.102;11.584;2024-01-06T04:25:56;71.90;;;22.17;;
38208;SDS011;24016;52.102;11.584;2024-01-06T04:28:22;70.40;;;21.63;;
38208;SDS011;24016;52.102;11.584;2024-01-06T04:30:48;69.90;;;20.60;;
38208;SDS011;24016;52.102;11.584;2024-01-06T04:33:13;76.65;;;21.48;;
38208;SDS011;24016;52.102;11.584;2024-01-06T04:35:39;69.90;;;21.38;;
38208;SDS011;24016;52.102;11.584;2024-01-06T04:38:04;77.85;;;21.85;;
38208;SDS011;24016;52.102;11.584;2024-01-06T04:40:30;68.88;;;20.38;;
38208;SDS011;24016;52.102;11.584;2024-01-06T04:42:55;83.82;;;22.75;;
38208;SDS011;24016;52.102;11.584;2024-01-06T04:45:21;74.50;;;21.60;;
38208;SDS011;24016;52.102;11.584;2024-01-06T04:47:49;85.10;;;22.35;;
38208;SDS011;24016;52.102;11.584;2024-01-06T04:50:14;94.65;;;22.08;;
38208;SDS011;24016;52.102;11.584;2024-01-06T04:52:40;86.95;;;23.13;;
38208;SDS011;24016;52.102;11.584;2024-01-06T04:55:05;88.88;;;21.98;;
38208;SDS011;24016;52.102;11.584;2024-01-06T04:57:31;81.68;;;22.42;;
38208;SDS011;24016;52.102;11.584;2024-01-06T04:59:57;84.53;;;21.80;;
38208;SDS011;24016;52.102;11.584;2024-01-06T05:02:23;83.75;;;21.88;;
38208;SDS011;24016;52.102;11.584;2024-01-06T05:04:49;86.55;;;23.00;;
38208;SDS011;24016;52.102;11.584;2024-01-06T05:07:14;97.45;;;23.60;;
38208;SDS011;24016;52.102;11.584;2024-01-06T05:09:40;87.80;;;23.52;;
38208;SDS011;24016;52.102;11.584;2024-01-06T05:12:05;84.90;;;22.55;;
38208;SDS011;24016;52.102;11.584;2024-01-06T05:14:31;95.50;;;23.35;;
38208;SDS011;24016;52.102;11.584;2024-01-06T05:16:56;100.18;;;22.90;;
38208;SDS011;24016;52.102;11.584;2024-01-06T05:19:22;93.38;;;22.70;;
38208;SDS011;24016;52.102;11.584;2024-01-06T05:21:48;99.78;;;23.63;;
38208;SDS011;24016;52.102;11.584;2024-01-06T05:24:14;91.10;;;22.60;;
38208;SDS011;24016;52.102;11.584;2024-01-06T05:26:39;79.75;;;23.83;;
38208;SDS011;24016;52.102;11.584;2024-01-06T05:29:05;83.18;;;22.55;;
38208;SDS011;24016;52.102;11.584;2024-01-06T05:31:30;96.32;;;24.08;;
38208;SDS011;24016;52.102;11.584;2024-01-06T05:33:56;90.43;;;23.13;;
38208;SDS011;24016;52.102;11.584;2024-01-06T05:36:21;97.70;;;25.15;;
38208;SDS011;24016;52.102;11.584;2024-01-06T05:38:47;93.50;;;23.02;;
38208;SDS011;24016;52.102;11.584;2024-01-06T05:41:13;94.28;;;23.58;;
38208;SDS011;24016;52.102;11.584;2024-01-06T05:43:38;96.53;;;24.30;;
38208;SDS011;24016;52.102;11.584;2024-01-06T05:46:04;92.80;;;23.02;;
38208;SDS011;24016;52.102;11.584;2024-01-06T05:48:29;100.10;;;24.20;;
38208;SDS011;24016;52.102;11.584;2024-01-06T05:50:55;95.03;;;23.15;;
38208;SDS011;24016;52.102;11.584;2024-01-06T05:53:21;95.10;;;24.63;;
38208;SDS011;24016;52.102;11.584;2024-01-06T05:55:46;142.02;;;24.33;;
38208;SDS011;24016;52.102;11.584;2024-01-06T05:58:12;120.55;;;23.02;;
38208;SDS011;24016;52.102;11.584;2024-01-06T06:00:38;176.23;;;25.50;;
38208;SDS011;24016;52.102;11.584;2024-01-06T06:03:03;135.95;;;24.27;;
38208;SDS011;24016;52.102;11.584;2024-01-06T06:05:29;142.13;;;24.65;;
38208;SDS011;24016;52.102;11.584;2024-01-06T06:07:55;117.03;;;24.42;;
38208;SDS011;24016;52.102;11.584;2024-01-06T06:10:20;92.30;;;23.67;;
38208;SDS011;24016;52.102;11.584;2024-01-06T06:12:46;100.07;;;24.77;;
38208;SDS011;24016;52.102;11.584;2024-01-06T06:15:12;103.18;;;25.00;;
38208;SDS011;24016;52.102;11.584;2024-01-06T06:17:38;105.88;;;25.27;;
38208;SDS011;24016;52.102;11.584;2024-01-06T06:20:04;97.10;;;23.80;;
38208;SDS011;24016;52.102;11.584;2024-01-06T06:22:31;85.97;;;24.40;;
38208;SDS011;24016;52.102;11.584;2024-01-06T06:25:00;92.25;;;25.45;;
38208;SDS011;24016;52.102;11.584;2024-01-06T06:27:25;84.90;;;23.90;;
38208;SDS011;24016;52.102;11.584;2024-01-06T06:29:51;71.55;;;23.02;;
38208;SDS011;24016;52.102;11.584;2024-01-06T06:32:17;87.10;;;23.55;;
38208;SDS011;24016;52.102;11.584;2024-01-06T06:34:43;87.32;;;25.10;;
38208;SDS011;24016;52.102;11.584;2024-01-06T06:37:09;87.63;;;23.80;;
38208;SDS011;24016;52.102;11.584;2024-01-06T06:39:34;91.10;;;24.92;;
38208;SDS011;24016;52.102;11.584;2024-01-06T06:42:00;82.93;;;24.42;;
38208;SDS011;24016;52.102;11.584;2024-01-06T06:44:27;85.60;;;24.30;;
38208;SDS011;24016;52.102;11.584;2024-01-06T06:46:52;85.25;;;24.17;;
38208;SDS011;24016;52.102;11.584;2024-01-06T06:49:18;91.32;;;24.27;;
38208;SDS011;24016;52.102;11.584;2024-01-06T06:51:44;84.22;;;24.92;;
38208;SDS011;24016;52.102;11.584;2024-01-06T06:54:13;81.75;;;24.52;;
38208;SDS011;24016;52.102;11.584;2024-01-06T06:56:40;110.20;;;27.23;;
38208;SDS011;24016;52.102;11.584;2024-01-06T06:59:06;102.72;;;24.98;;
38208;SDS011;24016;52.102;11.584;2024-01-06T07:01:32;97.93;;;25.95;;
38208;SDS011;24016;52.102;11.584;2024-01-06T07:03:57;101.55;;;24.95;;
38208;SDS011;24016;52.102;11.584;2024-01-06T07:06:23;107.18;;;26.42;;
38208;SDS011;24016;52.102;11.584;2024-01-06T07:08:48;98.00;;;25.40;;
38208;SDS011;24016;52.102;11.584;2024-01-06T07:11:14;94.82;;;26.20;;
38208;SDS011;24016;52.102;11.584;2024-01-06T07:13:43;100.30;;;25.25;;
38208;SDS011;24016;52.102;11.584;2024-01-06T07:16:08;97.38;;;25.42;;
38208;SDS011;24016;52.102;11.584;2024-01-06T07:18:34;106.18;;;26.60;;
38208;SDS011;24016;52.102;11.584;2024-01-06T07:21:00;96.95;;;25.85;;
38208;SDS011;24016;52.102;11.584;2024-01-06T07:23:25;98.30;;;24.20;;
38208;SDS011;24016;52.102;11.584;2024-01-06T07:25:51;92.22;;;25.27;;
38208;SDS011;24016;52.102;11.584;2024-01-06T07:28:16;105.60;;;26.95;;
38208;SDS011;24016;52.102;11.584;2024-01-06T07:30:42;108.20;;;29.80;;
38208;SDS011;24016;52.102;11.584;2024-01-06T07:33:07;115.40;;;31.10;;
38208;SDS011;24016;52.102;11.584;2024-01-06T07:35:33;112.82;;;29.77;;
38208;SDS011;24016;52.102;11.584;2024-01-06T07:37:59;115.65;;;29.50;;
38208;SDS011;24016;52.102;11.584;2024-01-06T07:40:24;111.88;;;29.20;;
38208;SDS011;24016;52.102;11.584;2024-01-06T07:42:50;131.05;;;30.92;;
38208;SDS011;24016;52.102;11.584;2024-01-06T07:45:16;118.85;;;28.88;;
38208;SDS011;24016;52.102;11.584;2024-01-06T07:47:42;143.52;;;32.33;;
38208;SDS011;24016;52.102;11.584;2024-01-06T07:50:08;148.88;;;31.17;;
38208;SDS011;24016;52.102;11.584;2024-01-06T07:52:34;134.23;;;28.90;;
38208;SDS011;24016;52.102;11.584;2024-01-06T07:54:59;143.85;;;31.75;;
38208;SDS011;24016;52.102;11.584;2024-01-06T07:57:25;133.57;;;32.33;;
38208;SDS011;24016;52.102;11.584;2024-01-06T07:59:50;133.82;;;30.73;;
38208;SDS011;24016;52.102;11.584;2024-01-06T08:02:16;149.68;;;33.17;;
38208;SDS011;24016;52.102;11.584;2024-01-06T08:04:42;150.98;;;32.75;;
38208;SDS011;24016;52.102;11.584;2024-01-06T08:07:07;140.57;;;31.05;;
38208;SDS011;24016;52.102;11.584;2024-01-06T08:09:33;148.18;;;32.15;;
38208;SDS011;24016;52.102;11.584;2024-01-06T08:11:58;137.05;;;29.95;;
38208;SDS011;24016;52.102;11.584;2024-01-06T08:14:24;145.70;;;30.23;;
38208;SDS011;24016;52.102;11.584;2024-01-06T08:16:49;150.50;;;30.25;;
38208;SDS011;24016;52.102;11.584;2024-01-06T08:19:15;156.55;;;31.73;;
38208;SDS011;24016;52.102;11.584;2024-01-06T08:21:41;157.85;;;31.77;;
38208;SDS011;24016;52.102;11.584;2024-01-06T08:24:06;154.40;;;31.23;;
38208;SDS011;24016;52.102;11.584;2024-01-06T08:26:32;152.93;;;31.02;;
38208;SDS011;24016;52.102;11.584;2024-01-06T08:28:58;137.50;;;29.58;;
38208;SDS011;24016;52.102;11.584;2024-01-06T08:31:23;148.20;;;31.27;;
38208;SDS011;24016;52.102;11.584;2024-01-06T08:33:49;136.93;;;30.00;;
38208;SDS011;24016;52.102;11.584;2024-01-06T08:36:15;156.70;;;30.63;;
38208;SDS011;24016;52.102;11.584;2024-01-06T08:38:40;150.90;;;31.27;;
38208;SDS011;24016;52.102;11.584;2024-01-06T08:41:06;142.00;;;30.67;;
38208;SDS011;24016;52.102;11.584;2024-01-06T08:43:32;169.70;;;30.63;;
38208;SDS011;24016;52.102;11.584;2024-01-06T08:45:58;152.40;;;31.30;;
38208;SDS011;24016;52.102;11.584;2024-01-06T08:48:24;132.70;;;29.60;;
38208;SDS011;24016;52.102;11.584;2024-01-06T08:50:49;146.32;;;30.70;;
38208;SDS011;24016;52.102;11.584;2024-01-06T08:53:15;168.05;;;30.85;;
38208;SDS011;24016;52.102;11.584;2024-01-06T08:55:41;167.13;;;32.10;;
38208;SDS011;24016;52.102;11.584;2024-01-06T08:58:07;151.43;;;31.75;;
38208;SDS011;24016;52.102;11.584;2024-01-06T09:00:32;164.82;;;30.88;;
38208;SDS011;24016;52.102;11.584;2024-01-06T09:02:58;158.38;;;33.25;;
38208;SDS011;24016;52.102;11.584;2024-01-06T09:05:24;173.90;;;32.60;;
38208;SDS011;24016;52.102;11.584;2024-01-06T09:07:50;158.80;;;31.20;;
38208;SDS011;24016;52.102;11.584;2024-01-06T09:10:16;178.02;;;32.05;;
38208;SDS011;24016;52.102;11.584;2024-01-06T09:12:42;143.70;;;31.60;;
38208;SDS011;24016;52.102;11.584;2024-01-06T09:15:08;154.50;;;31.35;;
38208;SDS011;24016;52.102;11.584;2024-01-06T09:17:33;161.93;;;30.73;;
38208;SDS011;24016;52.102;11.584;2024-01-06T09:19:59;150.48;;;33.00;;
38208;SDS011;24016;52.102;11.584;2024-01-06T09:22:26;141.40;;;31.27;;
38208;SDS011;24016;52.102;11.584;2024-01-06T09:24:52;129.93;;;29.48;;
38208;SDS011;24016;52.102;11.584;2024-01-06T09:27:17;126.28;;;28.52;;
38208;SDS011;24016;52.102;11.584;2024-01-06T09:29:44;106.05;;;27.42;;
38208;SDS011;24016;52.102;11.584;2024-01-06T09:32:09;134.93;;;30.80;;
38208;SDS011;24016;52.102;11.584;2024-01-06T09:34:35;103.70;;;28.25;;
38208;SDS011;24016;52.102;11.584;2024-01-06T09:37:00;122.03;;;28.38;;
38208;SDS011;24016;52.102;11.584;2024-01-06T09:39:26;113.80;;;28.23;;
38208;SDS011;24016;52.102;11.584;2024-01-06T09:41:52;117.30;;;27.90;;
38208;SDS011;24016;52.102;11.584;2024-01-06T09:44:18;106.10;;;25.85;;
38208;SDS011;24016;52.102;11.584;2024-01-06T09:46:43;106.50;;;28.27;;
38208;SDS011;24016;52.102;11.584;2024-01-06T09:49:09;114.32;;;27.08;;
38208;SDS011;24016;52.102;11.584;2024-01-06T09:51:36;119.38;;;28.52;;
38208;SDS011;24016;52.102;11.584;2024-01-06T09:54:05;130.95;;;30.23;;
38208;SDS011;24016;52.102;11.584;2024-01-06T09:56:33;131.75;;;28.17;;
38208;SDS011;24016;52.102;11.584;2024-01-06T09:58:59;149.35;;;31.38;;
38208;SDS011;24016;52.102;11.584;2024-01-06T10:01:25;150.98;;;33.90;;
38208;SDS011;24016;52.102;11.584;2024-01-06T10:03:50;148.13;;;33.47;;
38208;SDS011;24016;52.102;11.584;2024-01-06T10:06:16;147.63;;;31.50;;
38208;SDS011;24016;52.102;11.584;2024-01-06T10:08:43;135.73;;;29.83;;
38208;SDS011;24016;52.102;11.584;2024-01-06T10:11:10;145.73;;;32.20;;
38208;SDS011;24016;52.102;11.584;2024-01-06T10:13:36;132.30;;;30.58;;
38208;SDS011;24016;52.102;11.584;2024-01-06T10:16:07;140.82;;;30.00;;
38208;SDS011;24016;52.102;11.584;2024-01-06T10:18:33;143.43;;;30.63;;
38208;SDS011;24016;52.102;11.584;2024-01-06T10:21:00;144.85;;;30.38;;
38208;SDS011;24016;52.102;11.584;2024-01-06T10:23:29;148.88;;;31.17;;
38208;SDS011;24016;52.102;11.584;2024-01-06T10:25:56;165.10;;;32.00;;
38208;SDS011;24016;52.102;11.584;2024-01-06T10:28:22;164.55;;;30.88;;
38208;SDS011;24016;52.102;11.584;2024-01-06T10:30:49;157.15;;;32.70;;
38208;SDS011;24016;52.102;11.584;2024-01-06T10:33:17;147.52;;;32.75;;
38208;SDS011;24016;52.102;11.584;2024-01-06T10:35:44;153.98;;;34.30;;
38208;SDS011;24016;52.102;11.584;2024-01-06T10:38:10;153.63;;;32.60;;
38208;SDS011;24016;52.102;11.584;2024-01-06T10:40:36;146.18;;;33.22;;
38208;SDS011;24016;52.102;11.584;2024-01-06T10:43:02;156.82;;;33.70;;
38208;SDS011;24016;52.102;11.584;2024-01-06T10:45:28;156.43;;;35.28;;
38208;SDS011;24016;52.102;11.584;2024-01-06T10:47:55;145.43;;;33.35;;
38208;SDS011;24016;52.102;11.584;2024-01-06T10:50:20;140.30;;;32.15;;
38208;SDS011;24016;52.102;11.584;2024-01-06T10:52:47;139.32;;;33.83;;
38208;SDS011;24016;52.102;11.584;2024-01-06T10:55:15;161.85;;;32.78;;
38208;SDS011;24016;52.102;11.584;2024-01-06T10:57:43;141.90;;;33.47;;
38208;SDS011;24016;52.102;11.584;2024-01-06T11:00:12;141.93;;;32.70;;
38208;SDS011;24016;52.102;11.584;2024-01-06T11:02:38;154.27;;;33.63;;
38208;SDS011;24016;52.102;11.584;2024-01-06T11:05:04;168.95;;;34.40;;
38208;SDS011;24016;52.102;11.584;2024-01-06T11:07:35;143.18;;;31.75;;
38208;SDS011;24016;52.102;11.584;2024-01-06T11:10:07;159.55;;;33.40;;
38208;SDS011;24016;52.102;11.584;2024-01-06T11:12:41;164.48;;;34.90;;
38208;SDS011;24016;52.102;11.584;2024-01-06T11:15:10;154.75;;;33.90;;
38208;SDS011;24016;52.102;11.584;2024-01-06T11:18:05;151.50;;;32.15;;
38208;SDS011;24016;52.102;11.584;2024-01-06T11:20:31;149.45;;;31.60;;
38208;SDS011;24016;52.102;11.584;2024-01-06T11:23:17;155.60;;;33.13;;
38208;SDS011;24016;52.102;11.584;2024-01-06T11:25:45;152.73;;;31.95;;
38208;SDS011;24016;52.102;11.584;2024-01-06T11:28:11;151.50;;;31.83;;
38208;SDS011;24016;52.102;11.584;2024-01-06T11:30:37;143.52;;;32.97;;
38208;SDS011;24016;52.102;11.584;2024-01-06T11:33:03;158.50;;;33.25;;
38208;SDS011;24016;52.102;11.584;2024-01-06T11:35:29;164.85;;;33.45;;
38208;SDS011;24016;52.102;11.584;2024-01-06T11:37:56;165.15;;;34.08;;
38208;SDS011;24016;52.102;11.584;2024-01-06T11:40:25;150.10;;;32.67;;
38208;SDS011;24016;52.102;11.584;2024-01-06T11:45:37;156.40;;;34.60;;
38208;SDS011;24016;52.102;11.584;2024-01-06T11:48:06;147.63;;;35.13;;
38208;SDS011;24016;52.102;11.584;2024-01-06T11:50:37;148.20;;;34.22;;
38208;SDS011;24016;52.102;11.584;2024-01-06T11:53:04;156.52;;;36.35;;
38208;SDS011;24016;52.102;11.584;2024-01-06T11:55:31;170.77;;;37.45;;
38208;SDS011;24016;52.102;11.584;2024-01-06T11:57:57;169.05;;;36.80;;
38208;SDS011;24016;52.102;11.584;2024-01-06T12:00:27;196.05;;;38.40;;
38208;SDS011;24016;52.102;11.584;2024-01-06T12:02:59;173.35;;;36.67;;
38208;SDS011;24016;52.102;11.584;2024-01-06T12:05:26;177.85;;;36.67;;
38208;SDS011;24016;52.102;11.584;2024-01-06T12:07:56;176.80;;;36.78;;
38208;SDS011;24016;52.102;11.584;2024-01-06T12:10:23;164.45;;;35.03;;
38208;SDS011;24016;52.102;11.584;2024-01-06T12:12:56;177.77;;;34.90;;
38208;SDS011;24016;52.102;11.584;2024-01-06T12:15:25;182.35;;;37.17;;
38208;SDS011;24016;52.102;11.584;2024-01-06T12:17:51;166.95;;;36.35;;
38208;SDS011;24016;52.102;11.584;2024-01-06T12:20:17;180.10;;;34.40;;
38208;SDS011;24016;52.102;11.584;2024-01-06T12:22:43;177.82;;;37.03;;
38208;SDS011;24016;52.102;11.584;2024-01-06T12:25:09;193.70;;;38.05;;
38208;SDS011;24016;52.102;11.584;2024-01-06T12:27:35;182.00;;;36.55;;
38208;SDS011;24016;52.102;11.584;2024-01-06T12:30:00;180.02;;;37.88;;
38208;SDS011;24016;52.102;11.584;2024-01-06T12:32:26;207.77;;;37.28;;
38208;SDS011;24016;52.102;11.584;2024-01-06T12:34:51;192.73;;;38.50;;
38208;SDS011;24016;52.102;11.584;2024-01-06T12:37:18;197.82;;;40.90;;
38208;SDS011;24016;52.102;11.584;2024-01-06T12:39:43;199.75;;;39.72;;
38208;SDS011;24016;52.102;11.584;2024-01-06T12:42:14;165.93;;;38.60;;
38208;SDS011;24016;52.102;11.584;2024-01-06T12:44:41;167.07;;;37.17;;
38208;SDS011;24016;52.102;11.584;2024-01-06T12:47:07;167.63;;;38.63;;
38208;SDS011;24016;52.102;11.584;2024-01-06T12:49:33;155.35;;;37.08;;
38208;SDS011;24016;52.102;11.584;2024-01-06T12:51:58;152.98;;;37.53;;
38208;SDS011;24016;52.102;11.584;2024-01-06T12:54:24;163.05;;;38.00;;
38208;SDS011;24016;52.102;11.584;2024-01-06T12:56:50;185.27;;;40.67;;
38208;SDS011;24016;52.102;11.584;2024-01-06T12:59:15;181.02;;;39.63;;
38208;SDS011;24016;52.102;11.584;2024-01-06T13:01:41;158.52;;;39.08;;
38208;SDS011;24016;52.102;11.584;2024-01-06T13:04:07;196.38;;;40.28;;
38208;SDS011;24016;52.102;11.584;2024-01-06T13:06:33;188.65;;;41.45;;
38208;SDS011;24016;52.102;11.584;2024-01-06T13:08:59;200.15;;;40.53;;
38208;SDS011;24016;52.102;11.584;2024-01-06T13:11:27;202.18;;;42.17;;
38208;SDS011;24016;52.102;11.584;2024-01-06T13:13:53;169.55;;;40.70;;
38208;SDS011;24016;52.102;11.584;2024-01-06T13:16:18;185.65;;;39.47;;
38208;SDS011;24016;52.102;11.584;2024-01-06T13:18:44;186.23;;;41.35;;
38208;SDS011;24016;52.102;11.584;2024-01-06T13:21:09;191.02;;;41.65;;
38208;SDS011;24016;52.102;11.584;2024-01-06T13:23:35;204.25;;;42.42;;
38208;SDS011;24016;52.102;11.584;2024-01-06T13:26:03;210.77;;;43.33;;
38208;SDS011;24016;52.102;11.584;2024-01-06T13:28:33;207.65;;;43.78;;
38208;SDS011;24016;52.102;11.584;2024-01-06T13:31:00;216.55;;;47.65;;
38208;SDS011;24016;52.102;11.584;2024-01-06T13:33:25;218.30;;;44.08;;
38208;SDS011;24016;52.102;11.584;2024-01-06T13:35:51;208.32;;;43.03;;
38208;SDS011;24016;52.102;11.584;2024-01-06T13:38:16;220.45;;;44.88;;
38208;SDS011;24016;52.102;11.584;2024-01-06T13:40:42;195.35;;;43.30;;
38208;SDS011;24016;52.102;11.584;2024-01-06T13:43:07;198.65;;;45.20;;
38208;SDS011;24016;52.102;11.584;2024-01-06T13:45:40;218.32;;;47.20;;
38208;SDS011;24016;52.102;11.584;2024-01-06T13:48:06;193.00;;;44.50;;
38208;SDS011;24016;52.102;11.584;2024-01-06T13:50:32;209.32;;;45.20;;
38208;SDS011;24016;52.102;11.584;2024-01-06T13:52:58;222.65;;;45.28;;
38208;SDS011;24016;52.102;11.584;2024-01-06T13:55:23;199.50;;;42.92;;
38208;SDS011;24016;52.102;11.584;2024-01-06T13:57:49;214.50;;;44.30;;
38208;SDS011;24016;52.102;11.584;2024-01-06T14:00:14;211.82;;;45.15;;